Time;durP1;ratioP1;P1;durP2;ratioP2;P2;SDS_P1;SDS_P2;PMS_P1;PMS_P2;Temp;Humidity;BMP_temperature;BMP_pressure;BME280_temperature;BME280_humidity;BME280_pressure;Samples;Min_cycle;Max_cycle;Signal;HPM_P1;HPM_P2
2023/04/04 00:00:12;;;;;;;;;;;3.00;99.90;;;;;;5081974;28;20336;-63
2023/04/04 00:02:38;;;;;;;;;;;2.90;99.90;;;;;;5081417;28;19943;-64
2023/04/04 00:05:04;;;;;;;;;;;2.90;99.90;;;;;;5072069;28;19975;-63
2023/04/04 00:07:30;;;;;;;;;;;2.90;99.90;;;;;;5083690;28;19965;-64
2023/04/04 00:09:56;;;;;;;;;;;2.80;99.90;;;;;;5085650;28;19916;-65
2023/04/04 00:12:21;;;;;;;;;;;2.80;99.90;;;;;;5083737;28;19916;-65
2023/04/04 00:14:47;;;;;;;;;;;2.70;99.90;;;;;;5085424;28;19913;-65
2023/04/04 00:17:12;;;;;;;;;;;2.60;99.90;;;;;;5081984;28;19928;-63
2023/04/04 00:19:38;;;;;;;;;;;2.50;99.90;;;;;;5082732;28;20003;-64
2023/04/04 00:22:04;;;;;;;;;;;2.40;99.90;;;;;;5063141;28;19931;-64
2023/04/04 00:24:30;;;;;;;;;;;2.40;99.90;;;;;;5086175;28;19916;-64
2023/04/04 00:26:55;;;;;;;;;;;2.30;99.90;;;;;;5083169;28;19924;-64
2023/04/04 00:29:21;;;;;;;;;;;2.20;99.90;;;;;;5079019;28;19920;-62
2023/04/04 00:31:47;;;;;;;;;;;2.20;99.90;;;;;;5077702;28;19912;-63
2023/04/04 00:34:12;;;;;;;;;;;2.20;99.90;;;;;;5081762;28;19912;-63
2023/04/04 00:36:38;;;;;;;;;;;2.20;99.90;;;;;;5080730;28;19920;-64
2023/04/04 00:39:04;;;;;;;;;;;2.10;99.90;;;;;;5064243;28;19912;-64
2023/04/04 00:41:29;;;;;;;;;;;2.10;99.90;;;;;;5078477;28;19981;-63
2023/04/04 00:43:55;;;;;;;;;;;2.00;99.90;;;;;;5080165;28;20323;-64
2023/04/04 00:46:22;;;;;;;;;;;2.00;99.90;;;;;;5078985;28;20279;-64
2023/04/04 00:48:48;;;;;;;;;;;2.00;99.90;;;;;;5074355;28;19966;-63
2023/04/04 00:51:14;;;;;;;;;;;1.90;99.90;;;;;;5079958;28;20287;-64
2023/04/04 00:53:43;;;;;;;;;;;2.00;99.90;;;;;;5079704;28;19959;-63
2023/04/04 00:56:09;;;;;;;;;;;2.10;99.90;;;;;;5084498;28;19912;-63
2023/04/04 00:58:35;;;;;;;;;;;2.00;99.90;;;;;;5078042;28;20372;-64
2023/04/04 01:01:01;;;;;;;;;;;2.00;99.90;;;;;;5061763;28;20359;-64
2023/04/04 01:03:26;;;;;;;;;;;1.90;99.90;;;;;;5086567;28;19912;-64
2023/04/04 01:05:53;;;;;;;;;;;1.80;99.90;;;;;;5077280;28;19920;-64
2023/04/04 01:08:21;;;;;;;;;;;1.90;99.90;;;;;;5076663;28;20015;-65
2023/04/04 01:10:47;;;;;;;;;;;2.00;99.90;;;;;;5082518;28;19912;-63
2023/04/04 01:13:14;;;;;;;;;;;2.00;99.90;;;;;;5081619;28;20275;-63
2023/04/04 01:15:40;;;;;;;;;;;1.90;99.90;;;;;;5079377;28;20019;-63
2023/04/04 01:18:06;;;;;;;;;;;1.90;99.90;;;;;;5085285;28;20407;-64
2023/04/04 01:20:33;;;;;;;;;;;1.80;99.90;;;;;;5082681;28;19979;-63
2023/04/04 01:23:00;;;;;;;;;;;1.80;99.90;;;;;;5078446;28;19912;-64
2023/04/04 01:25:30;;;;;;;;;;;1.90;99.90;;;;;;5065509;28;19920;-64
2023/04/04 01:27:57;;;;;;;;;;;1.90;99.90;;;;;;5071698;28;19912;-64
2023/04/04 01:30:23;;;;;;;;;;;1.90;99.90;;;;;;5080885;28;19912;-64
2023/04/04 01:33:09;;;;;;;;;;;1.80;99.90;;;;;;5081055;28;19920;-64
2023/04/04 01:35:50;;;;;;;;;;;1.80;99.90;;;;;;5077592;28;19948;-63
2023/04/04 01:38:16;;;;;;;;;;;1.80;99.90;;;;;;5071777;28;19936;-63
2023/04/04 01:40:47;;;;;;;;;;;1.70;99.90;;;;;;5076213;28;20001;-64
2023/04/04 01:43:12;;;;;;;;;;;1.70;99.90;;;;;;5065349;28;19921;-64
2023/04/04 01:45:38;;;;;;;;;;;1.80;99.90;;;;;;5062209;28;20003;-64
2023/04/04 01:48:04;;;;;;;;;;;1.70;99.90;;;;;;5055919;28;20339;-64
2023/04/04 01:50:30;;;;;;;;;;;1.80;99.90;;;;;;5062128;28;20015;-64
2023/04/04 01:52:55;;;;;;;;;;;1.70;99.90;;;;;;5059159;28;20376;-63
2023/04/04 01:55:21;;;;;;;;;;;1.80;99.90;;;;;;5052251;28;19924;-63
2023/04/04 01:57:47;;;;;;;;;;;1.70;99.90;;;;;;5050203;28;20411;-64
2023/04/04 02:00:14;;;;;;;;;;;1.80;99.90;;;;;;5041419;28;19920;-63
2023/04/04 02:02:40;;;;;;;;;;;1.80;99.90;;;;;;5059631;28;19916;-64
2023/04/04 02:05:05;;;;;;;;;;;1.90;99.90;;;;;;5056059;28;20348;-63
2023/04/04 02:07:31;;;;;;;;;;;1.90;99.90;;;;;;5058168;28;20399;-63
2023/04/04 02:09:57;;;;;;;;;;;1.80;99.90;;;;;;5051720;28;19912;-64
2023/04/04 02:12:23;;;;;;;;;;;1.70;99.90;;;;;;5058436;28;19948;-63
2023/04/04 02:14:48;;;;;;;;;;;1.70;99.90;;;;;;5050467;28;19959;-63
2023/04/04 02:17:14;;;;;;;;;;;1.70;99.90;;;;;;5057490;28;20407;-64
2023/04/04 02:19:39;;;;;;;;;;;1.60;99.90;;;;;;5056893;28;19955;-63
2023/04/04 02:22:05;;;;;;;;;;;1.50;99.90;;;;;;5050872;28;19932;-64
2023/04/04 02:24:31;;;;;;;;;;;1.50;99.90;;;;;;5055416;28;19916;-63
2023/04/04 02:26:56;;;;;;;;;;;1.50;99.90;;;;;;5035431;28;19919;-63
2023/04/04 02:29:22;;;;;;;;;;;1.50;99.90;;;;;;5057376;28;19912;-63
2023/04/04 02:31:47;;;;;;;;;;;1.50;99.90;;;;;;5057412;28;19913;-63
2023/04/04 02:34:13;;;;;;;;;;;1.40;99.90;;;;;;5046434;28;19912;-63
2023/04/04 02:36:39;;;;;;;;;;;1.30;99.90;;;;;;5057026;28;19916;-63
2023/04/04 02:39:04;;;;;;;;;;;1.30;99.90;;;;;;5051100;28;20052;-63
2023/04/04 02:41:30;;;;;;;;;;;1.20;99.90;;;;;;5049933;28;20363;-63
2023/04/04 02:43:55;;;;;;;;;;;1.10;99.90;;;;;;5046750;28;20399;-64
2023/04/04 02:46:21;;;;;;;;;;;1.10;99.90;;;;;;5047887;28;19912;-63
2023/04/04 02:48:47;;;;;;;;;;;1.00;99.90;;;;;;5048233;28;20368;-63
2023/04/04 02:51:13;;;;;;;;;;;0.90;99.90;;;;;;5049310;28;19913;-63
2023/04/04 02:53:38;;;;;;;;;;;0.70;99.90;;;;;;5048628;28;19920;-63
2023/04/04 02:56:04;;;;;;;;;;;0.60;99.90;;;;;;5049730;28;20356;-62
2023/04/04 02:58:32;;;;;;;;;;;0.50;99.90;;;;;;5047669;28;19963;-63
2023/04/04 03:00:58;;;;;;;;;;;0.50;99.90;;;;;;5050168;28;19959;-63
2023/04/04 03:03:23;;;;;;;;;;;0.50;99.90;;;;;;5053425;28;19959;-63
2023/04/04 03:05:50;;;;;;;;;;;0.70;99.90;;;;;;5046206;28;20361;-62
2023/04/04 03:08:16;;;;;;;;;;;0.90;99.90;;;;;;5048547;28;19920;-62
2023/04/04 03:10:41;;;;;;;;;;;0.90;99.90;;;;;;5049421;28;19913;-64
2023/04/04 03:13:07;;;;;;;;;;;0.80;99.90;;;;;;5051648;28;19967;-63
2023/04/04 03:15:33;;;;;;;;;;;0.90;99.90;;;;;;5049336;28;19913;-63
2023/04/04 03:17:59;;;;;;;;;;;0.80;99.90;;;;;;5049158;28;19921;-63
2023/04/04 03:20:25;;;;;;;;;;;0.80;99.90;;;;;;5049291;28;19995;-63
2023/04/04 03:22:51;;;;;;;;;;;0.80;99.90;;;;;;5045361;28;19956;-63
2023/04/04 03:25:17;;;;;;;;;;;0.80;99.90;;;;;;5049269;28;19979;-63
2023/04/04 03:27:42;;;;;;;;;;;0.80;99.90;;;;;;5042832;28;19956;-63
2023/04/04 03:30:08;;;;;;;;;;;0.80;99.90;;;;;;5054292;28;20333;-64
2023/04/04 03:32:38;;;;;;;;;;;0.80;99.90;;;;;;5049372;28;19919;-64
2023/04/04 03:35:04;;;;;;;;;;;0.80;99.90;;;;;;5048837;28;20410;-63
2023/04/04 03:37:29;;;;;;;;;;;0.90;99.90;;;;;;5048272;28;19925;-63
2023/04/04 03:39:55;;;;;;;;;;;0.90;99.90;;;;;;5046907;28;20008;-62
2023/04/04 03:42:21;;;;;;;;;;;0.90;99.90;;;;;;5050422;28;19913;-63
2023/04/04 03:44:46;;;;;;;;;;;0.90;99.90;;;;;;5064049;28;19920;-62
2023/04/04 03:47:15;;;;;;;;;;;0.90;99.90;;;;;;5066976;28;19913;-62
2023/04/04 03:49:41;;;;;;;;;;;0.80;99.90;;;;;;5065913;28;19923;-63
2023/04/04 03:52:06;;;;;;;;;;;1.00;99.90;;;;;;5073740;28;19939;-62
2023/04/04 03:54:32;;;;;;;;;;;0.90;99.90;;;;;;5069450;28;20299;-63
2023/04/04 03:56:58;;;;;;;;;;;1.00;99.90;;;;;;5067361;28;19916;-63
2023/04/04 03:59:23;;;;;;;;;;;1.10;99.90;;;;;;5068796;28;19957;-62
2023/04/04 04:01:49;;;;;;;;;;;1.10;99.90;;;;;;5067554;28;19920;-63
2023/04/04 04:04:15;;;;;;;;;;;1.10;99.90;;;;;;5069401;28;19913;-63
2023/04/04 04:06:41;;;;;;;;;;;1.10;99.90;;;;;;5079697;28;20047;-63
2023/04/04 04:09:06;;;;;;;;;;;1.00;99.90;;;;;;5069453;28;19950;-63
2023/04/04 04:11:32;;;;;;;;;;;0.90;99.90;;;;;;5061855;28;19917;-62
2023/04/04 04:13:59;;;;;;;;;;;1.00;99.90;;;;;;5067187;28;19919;-63
2023/04/04 04:16:25;;;;;;;;;;;1.00;99.90;;;;;;5069419;28;19943;-63
2023/04/04 04:18:50;;;;;;;;;;;1.10;99.90;;;;;;5067331;28;20334;-63
2023/04/04 04:21:16;;;;;;;;;;;1.10;99.90;;;;;;5069471;28;19912;-63
2023/04/04 04:23:41;;;;;;;;;;;1.10;99.90;;;;;;5066775;28;19934;-64
2023/04/04 04:26:07;;;;;;;;;;;1.10;99.90;;;;;;5067133;28;19916;-63
2023/04/04 04:28:33;;;;;;;;;;;1.00;99.90;;;;;;5064848;28;19912;-64
2023/04/04 04:31:08;;;;;;;;;;;1.00;99.90;;;;;;5068294;28;19991;-63
2023/04/04 04:33:34;;;;;;;;;;;1.00;99.90;;;;;;5072771;28;20383;-63
2023/04/04 04:36:03;;;;;;;;;;;1.00;99.90;;;;;;5056383;28;19991;-63
2023/04/04 04:38:29;;;;;;;;;;;1.00;99.90;;;;;;5061224;28;19998;-64
2023/04/04 04:40:55;;;;;;;;;;;0.90;99.90;;;;;;5068116;28;20322;-63
2023/04/04 04:43:21;;;;;;;;;;;1.00;99.90;;;;;;5071309;28;20358;-63
2023/04/04 04:45:47;;;;;;;;;;;1.00;99.90;;;;;;5058080;28;20380;-63
2023/04/04 04:48:12;;;;;;;;;;;1.00;99.90;;;;;;5048009;28;20369;-63
2023/04/04 04:50:38;;;;;;;;;;;1.00;99.90;;;;;;5051379;28;19913;-63
2023/04/04 04:53:04;;;;;;;;;;;1.00;99.90;;;;;;5056916;28;19917;-64
2023/04/04 04:55:29;;;;;;;;;;;0.90;99.90;;;;;;5061875;28;20376;-64
2023/04/04 04:57:55;;;;;;;;;;;0.90;99.90;;;;;;5050188;28;19940;-64
2023/04/04 05:00:22;;;;;;;;;;;0.80;99.90;;;;;;5051268;28;19913;-62
2023/04/04 05:02:48;;;;;;;;;;;0.90;99.90;;;;;;5056988;28;19999;-63
2023/04/04 05:05:14;;;;;;;;;;;0.80;99.90;;;;;;5060253;28;19912;-62
2023/04/04 05:07:43;;;;;;;;;;;0.80;99.90;;;;;;5063333;28;19912;-65
2023/04/04 05:10:09;;;;;;;;;;;0.80;99.90;;;;;;5061417;28;19913;-63
2023/04/04 05:12:35;;;;;;;;;;;0.70;99.90;;;;;;5032795;28;20331;-62
2023/04/04 05:15:01;;;;;;;;;;;0.80;99.90;;;;;;5060323;28;19912;-63
2023/04/04 05:17:27;;;;;;;;;;;0.80;99.90;;;;;;5070683;28;19920;-64
2023/04/04 05:19:52;;;;;;;;;;;0.90;99.90;;;;;;5063350;28;19917;-64
2023/04/04 05:22:18;;;;;;;;;;;0.90;99.90;;;;;;5060624;28;19963;-64
2023/04/04 05:24:43;;;;;;;;;;;0.90;99.90;;;;;;5057402;28;19912;-64
2023/04/04 05:27:09;;;;;;;;;;;1.10;99.90;;;;;;5059888;28;20011;-63
2023/04/04 05:29:34;;;;;;;;;;;1.30;99.90;;;;;;5060934;28;19916;-61
2023/04/04 05:32:00;;;;;;;;;;;1.30;99.90;;;;;;5061299;28;19920;-62
2023/04/04 05:34:26;;;;;;;;;;;1.20;99.90;;;;;;5059634;28;19995;-63
2023/04/04 05:36:52;;;;;;;;;;;1.30;99.90;;;;;;5065263;28;20323;-63
2023/04/04 05:39:17;;;;;;;;;;;1.30;99.90;;;;;;5053825;28;20325;-64
2023/04/04 05:41:43;;;;;;;;;;;1.50;99.90;;;;;;5058546;28;19913;-62
2023/04/04 05:44:08;;;;;;;;;;;1.50;99.90;;;;;;5062346;28;19947;-63
2023/04/04 05:46:34;;;;;;;;;;;1.60;99.90;;;;;;5062930;28;19994;-64
2023/04/04 05:49:00;;;;;;;;;;;1.60;99.90;;;;;;5051475;28;19976;-63
2023/04/04 05:51:25;;;;;;;;;;;1.70;99.90;;;;;;5070327;28;19916;-63
2023/04/04 05:53:51;;;;;;;;;;;1.80;99.90;;;;;;5058741;28;19917;-64
2023/04/04 05:56:17;;;;;;;;;;;1.90;99.90;;;;;;5055983;28;19913;-63
2023/04/04 05:58:43;;;;;;;;;;;1.90;99.90;;;;;;5051909;28;19925;-65
2023/04/04 06:01:09;;;;;;;;;;;2.00;99.90;;;;;;5047862;28;19925;-64
2023/04/04 06:03:35;;;;;;;;;;;2.00;99.90;;;;;;5058424;28;20284;-64
2023/04/04 06:06:03;;;;;;;;;;;2.00;99.90;;;;;;5048718;28;20404;-64
2023/04/04 06:08:29;;;;;;;;;;;2.00;99.90;;;;;;5061408;28;19913;-63
2023/04/04 06:10:54;;;;;;;;;;;2.00;99.90;;;;;;5051915;28;20651;-64
2023/04/04 06:13:20;;;;;;;;;;;2.00;99.90;;;;;;5056491;28;20428;-63
2023/04/04 06:15:46;;;;;;;;;;;2.10;99.90;;;;;;5055955;28;19960;-64
2023/04/04 06:18:11;;;;;;;;;;;2.20;99.90;;;;;;5055984;28;19974;-65
2023/04/04 06:20:37;;;;;;;;;;;2.20;99.90;;;;;;5060768;28;20007;-62
2023/04/04 06:23:03;;;;;;;;;;;2.20;99.90;;;;;;5062566;28;19912;-63
2023/04/04 06:25:30;;;;;;;;;;;2.10;99.90;;;;;;5055205;28;19912;-64
2023/04/04 06:27:55;;;;;;;;;;;2.10;99.90;;;;;;5057328;28;20028;-64
2023/04/04 06:30:21;;;;;;;;;;;2.10;99.90;;;;;;5062895;28;20371;-65
2023/04/04 06:32:47;;;;;;;;;;;2.00;99.90;;;;;;5056777;28;19962;-64
2023/04/04 06:35:12;;;;;;;;;;;2.00;99.90;;;;;;5054267;28;20360;-63
2023/04/04 06:37:38;;;;;;;;;;;2.10;99.90;;;;;;5050499;28;20295;-64
2023/04/04 06:40:04;;;;;;;;;;;2.10;99.90;;;;;;5069929;28;20378;-63
2023/04/04 06:42:29;;;;;;;;;;;2.10;99.90;;;;;;5067219;28;19983;-64
2023/04/04 06:44:55;;;;;;;;;;;2.20;99.90;;;;;;5074966;28;19916;-63
2023/04/04 06:47:21;;;;;;;;;;;2.20;99.90;;;;;;5082134;28;19922;-64
2023/04/04 06:49:46;;;;;;;;;;;2.20;99.90;;;;;;5071031;28;20007;-63
2023/04/04 06:52:12;;;;;;;;;;;2.20;99.90;;;;;;5079780;28;20111;-63
2023/04/04 06:54:40;;;;;;;;;;;2.30;99.90;;;;;;5065018;28;20445;-64
2023/04/04 06:57:05;;;;;;;;;;;2.40;99.90;;;;;;5072429;28;19920;-62
2023/04/04 06:59:31;;;;;;;;;;;2.60;99.90;;;;;;5073960;28;19956;-62
2023/04/04 07:01:56;;;;;;;;;;;2.60;99.90;;;;;;5080505;28;19962;-63
2023/04/04 07:04:22;;;;;;;;;;;2.60;99.90;;;;;;5057482;28;19919;-63
2023/04/04 07:06:48;;;;;;;;;;;2.60;99.90;;;;;;5076849;28;19990;-62
2023/04/04 07:09:13;;;;;;;;;;;2.50;99.90;;;;;;5072256;28;20393;-63
2023/04/04 07:11:39;;;;;;;;;;;2.50;99.90;;;;;;5069675;28;20285;-63
2023/04/04 07:14:05;;;;;;;;;;;2.50;99.90;;;;;;5076864;28;19912;-63
2023/04/04 07:16:30;;;;;;;;;;;2.60;99.90;;;;;;5076026;28;19926;-63
2023/04/04 07:18:56;;;;;;;;;;;2.70;99.90;;;;;;5070891;28;19917;-63
2023/04/04 07:21:21;;;;;;;;;;;2.70;99.90;;;;;;5072351;28;20011;-63
2023/04/04 07:23:47;;;;;;;;;;;2.70;99.90;;;;;;5067702;28;19912;-62
2023/04/04 07:26:12;;;;;;;;;;;2.70;99.90;;;;;;5070183;28;20406;-63
2023/04/04 07:28:38;;;;;;;;;;;2.80;99.90;;;;;;5067566;28;19939;-64
2023/04/04 07:31:04;;;;;;;;;;;2.80;99.90;;;;;;5071856;28;20272;-63
2023/04/04 07:33:29;;;;;;;;;;;2.80;99.90;;;;;;5067928;28;19955;-63
2023/04/04 07:35:55;;;;;;;;;;;2.90;99.90;;;;;;5068870;28;20007;-63
2023/04/04 07:38:21;;;;;;;;;;;3.00;99.90;;;;;;5070946;28;19921;-64
2023/04/04 07:40:49;;;;;;;;;;;3.10;99.90;;;;;;5071392;28;19912;-64
2023/04/04 07:43:15;;;;;;;;;;;3.10;99.90;;;;;;5063851;28;19927;-64
2023/04/04 07:45:41;;;;;;;;;;;3.20;99.90;;;;;;5075375;28;19920;-63
2023/04/04 07:48:06;;;;;;;;;;;3.30;99.90;;;;;;5071198;28;19912;-63
2023/04/04 07:50:33;;;;;;;;;;;3.40;99.90;;;;;;5070012;28;20271;-64
2023/04/04 07:52:58;;;;;;;;;;;3.50;99.90;;;;;;5071159;28;19931;-64
2023/04/04 07:55:24;;;;;;;;;;;3.60;99.90;;;;;;5075638;28;19992;-63
2023/04/04 07:57:51;;;;;;;;;;;3.60;99.90;;;;;;5068004;28;20357;-64
2023/04/04 08:00:20;;;;;;;;;;;3.70;99.90;;;;;;5073792;28;19995;-63
2023/04/04 08:02:52;;;;;;;;;;;3.80;99.90;;;;;;5076587;28;20005;-64
2023/04/04 08:05:18;;;;;;;;;;;3.90;99.90;;;;;;5076809;28;19916;-64
2023/04/04 08:07:44;;;;;;;;;;;4.00;99.90;;;;;;5073280;28;19912;-63
2023/04/04 08:10:10;;;;;;;;;;;4.20;99.90;;;;;;5066371;28;19928;-63
2023/04/04 08:12:35;;;;;;;;;;;4.20;99.90;;;;;;5067240;28;19916;-62
2023/04/04 08:15:01;;;;;;;;;;;4.30;99.90;;;;;;5074468;28;19926;-63
2023/04/04 08:17:27;;;;;;;;;;;4.50;99.90;;;;;;5072316;28;19991;-64
2023/04/04 08:19:53;;;;;;;;;;;4.60;99.90;;;;;;5052050;28;19983;-63
2023/04/04 08:22:18;;;;;;;;;;;4.70;99.90;;;;;;5071991;28;19986;-64
2023/04/04 08:24:45;;;;;;;;;;;4.80;99.90;;;;;;5081267;28;20371;-64
2023/04/04 08:27:10;;;;;;;;;;;4.90;99.90;;;;;;5076936;28;19917;-64
2023/04/04 08:29:36;;;;;;;;;;;5.10;99.90;;;;;;5074712;28;20295;-64
2023/04/04 08:32:02;;;;;;;;;;;5.20;99.90;;;;;;5084783;28;19912;-64
2023/04/04 08:34:28;;;;;;;;;;;5.40;99.90;;;;;;5072457;28;19996;-64
2023/04/04 08:36:53;;;;;;;;;;;5.50;99.90;;;;;;5070873;28;19987;-63
2023/04/04 08:39:19;;;;;;;;;;;5.70;99.90;;;;;;5072249;28;19912;-64
2023/04/04 08:41:45;;;;;;;;;;;5.70;99.90;;;;;;5074243;28;19943;-64
2023/04/04 08:44:16;;;;;;;;;;;6.00;99.90;;;;;;5075963;28;19924;-64
2023/04/04 08:46:42;;;;;;;;;;;6.20;99.90;;;;;;5074173;28;19916;-64
2023/04/04 08:49:09;;;;;;;;;;;6.30;99.90;;;;;;5075221;28;19912;-64
2023/04/04 08:51:35;;;;;;;;;;;6.50;99.90;;;;;;5079115;28;19974;-64
2023/04/04 08:54:01;;;;;;;;;;;6.60;99.90;;;;;;5071060;28;19967;-64
2023/04/04 08:56:27;;;;;;;;;;;6.80;99.90;;;;;;5082167;28;19948;-64
2023/04/04 08:58:53;;;;;;;;;;;6.90;99.90;;;;;;5070515;28;20330;-65
2023/04/04 09:01:19;;;;;;;;;;;7.10;99.90;;;;;;5072943;28;19966;-64
2023/04/04 09:03:44;;;;;;;;;;;7.20;99.90;;;;;;5071458;28;19912;-65
2023/04/04 09:06:11;;;;;;;;;;;7.40;99.90;;;;;;5085053;28;19913;-64
2023/04/04 09:08:37;;;;;;;;;;;7.50;99.90;;;;;;5075090;28;19957;-63
2023/04/04 09:11:04;;;;;;;;;;;7.60;99.90;;;;;;5070945;28;19912;-63
2023/04/04 09:13:30;;;;;;;;;;;7.70;99.90;;;;;;5085126;28;19912;-63
2023/04/04 09:15:57;;;;;;;;;;;7.90;99.90;;;;;;5075845;28;20379;-63
2023/04/04 09:18:22;;;;;;;;;;;7.90;99.90;;;;;;5055533;28;20016;-64
2023/04/04 09:20:48;;;;;;;;;;;8.10;99.90;;;;;;5069092;28;20008;-63
2023/04/04 09:23:15;;;;;;;;;;;8.10;99.90;;;;;;5078704;28;19919;-63
2023/04/04 09:25:45;;;;;;;;;;;8.20;99.90;;;;;;5068209;28;19920;-63
2023/04/04 09:28:13;;;;;;;;;;;8.20;99.90;;;;;;5074870;28;19919;-63
2023/04/04 09:30:38;;;;;;;;;;;8.10;99.90;;;;;;5069912;28;19912;-63
2023/04/04 09:33:04;;;;;;;;;;;8.20;99.90;;;;;;5070507;28;19917;-65
2023/04/04 09:35:31;;;;;;;;;;;8.30;99.90;;;;;;5071787;28;19916;-63
2023/04/04 09:37:57;;;;;;;;;;;8.40;99.90;;;;;;5069609;28;19967;-63
2023/04/04 09:40:25;;;;;;;;;;;8.60;99.90;;;;;;5070056;28;19917;-62
2023/04/04 09:42:52;;;;;;;;;;;8.80;99.90;;;;;;5069031;28;19971;-62
2023/04/04 09:45:18;;;;;;;;;;;8.80;99.90;;;;;;5050350;28;19921;-62
2023/04/04 09:47:44;;;;;;;;;;;8.90;99.90;;;;;;5046153;28;19913;-62
2023/04/04 09:50:19;;;;;;;;;;;8.90;99.90;;;;;;5045212;28;19913;-63
2023/04/04 09:52:47;;;;;;;;;;;8.90;99.90;;;;;;5047134;28;19940;-63
2023/04/04 09:55:13;;;;;;;;;;;9.00;99.90;;;;;;5050453;28;19917;-63
2023/04/04 09:57:39;;;;;;;;;;;9.00;99.90;;;;;;5046717;28;20296;-62
2023/04/04 10:00:07;;;;;;;;;;;9.10;99.90;;;;;;5050475;28;20288;-62
2023/04/04 10:02:35;;;;;;;;;;;9.10;99.90;;;;;;5048839;28;19996;-62
2023/04/04 10:05:02;;;;;;;;;;;9.20;99.90;;;;;;5044608;28;20011;-68
2023/04/04 10:07:29;;;;;;;;;;;9.30;99.90;;;;;;5050115;28;19913;-68
2023/04/04 10:09:54;;;;;;;;;;;9.40;99.90;;;;;;5048746;28;19919;-68
2023/04/04 10:12:21;;;;;;;;;;;9.50;99.90;;;;;;5047271;28;20327;-68
2023/04/04 10:14:47;;;;;;;;;;;9.50;99.90;;;;;;5047151;28;20344;-68
2023/04/04 10:17:13;;;;;;;;;;;9.50;99.90;;;;;;5050011;28;20007;-68
2023/04/04 10:19:39;;;;;;;;;;;9.60;99.90;;;;;;5047556;28;19920;-69
2023/04/04 10:22:05;;;;;;;;;;;9.70;99.90;;;;;;5050865;28;19999;-68
2023/04/04 10:24:31;;;;;;;;;;;9.70;99.90;;;;;;5052230;28;20413;-67
2023/04/04 10:26:56;;;;;;;;;;;9.70;99.90;;;;;;5045685;28;19917;-69
2023/04/04 10:29:22;;;;;;;;;;;9.90;99.90;;;;;;5048940;28;19912;-69
2023/04/04 10:31:52;;;;;;;;;;;10.00;99.90;;;;;;5042408;28;19951;-69
2023/04/04 10:34:24;;;;;;;;;;;10.00;99.90;;;;;;5042832;28;19913;-68
2023/04/04 10:36:52;;;;;;;;;;;10.10;99.90;;;;;;5043445;28;20280;-68
2023/04/04 10:39:39;;;;;;;;;;;10.20;99.90;;;;;;5043933;28;20359;-69
2023/04/04 10:42:06;;;;;;;;;;;10.20;99.90;;;;;;5044225;28;19955;-67
2023/04/04 10:44:32;;;;;;;;;;;10.40;99.90;;;;;;5067604;28;19925;-68
2023/04/04 10:47:05;;;;;;;;;;;10.50;99.90;;;;;;5068254;28;20296;-67
2023/04/04 10:49:32;;;;;;;;;;;10.60;99.90;;;;;;5066691;28;19985;-67
2023/04/04 10:51:57;;;;;;;;;;;10.60;99.90;;;;;;5067923;28;19916;-68
2023/04/04 10:54:27;;;;;;;;;;;10.70;99.90;;;;;;5069143;28;20004;-66
2023/04/04 10:56:55;;;;;;;;;;;10.70;99.90;;;;;;5068711;28;20011;-68
2023/04/04 10:59:23;;;;;;;;;;;10.80;99.90;;;;;;5068417;28;19943;-68
2023/04/04 11:01:53;;;;;;;;;;;10.70;99.90;;;;;;5067467;28;19916;-68
2023/04/04 11:04:21;;;;;;;;;;;10.80;99.90;;;;;;5050444;28;19982;-68
2023/04/04 11:07:05;;;;;;;;;;;10.80;99.90;;;;;;5061175;28;19916;-68
2023/04/04 11:09:49;;;;;;;;;;;10.80;99.90;;;;;;5066693;28;19912;-68
2023/04/04 11:12:19;;;;;;;;;;;10.80;99.90;;;;;;5059651;28;20015;-68
2023/04/04 11:14:55;;;;;;;;;;;10.90;99.90;;;;;;5068018;28;19916;-68
2023/04/04 11:17:39;;;;;;;;;;;11.00;99.90;;;;;;5065332;28;19973;-68
2023/04/04 11:20:06;;;;;;;;;;;11.30;99.90;;;;;;5068353;28;19917;-68
2023/04/04 11:22:35;;;;;;;;;;;11.90;99.90;;;;;;5068648;28;20015;-68
2023/04/04 11:25:20;;;;;;;;;;;12.60;99.90;;;;;;5062857;28;19924;-68
2023/04/04 11:27:47;;;;;;;;;;;13.20;99.90;;;;;;5064844;28;19943;-68
2023/04/04 11:30:15;;;;;;;;;;;13.20;99.90;;;;;;5075007;28;20355;-68
2023/04/04 11:32:45;;;;;;;;;;;13.40;99.90;;;;;;5062078;28;19971;-68
2023/04/04 11:35:10;;;;;;;;;;;13.60;99.90;;;;;;5063749;28;20540;-68
2023/04/04 11:37:56;;;;;;;;;;;13.80;99.90;;;;;;5067811;28;20400;-68
2023/04/04 11:40:33;;;;;;;;;;;13.70;96.50;;;;;;5063207;28;20035;-68
2023/04/04 11:43:02;;;;;;;;;;;13.80;97.20;;;;;;5063550;28;19913;-69
2023/04/04 11:45:28;;;;;;;;;;;13.90;98.60;;;;;;5065272;28;19925;-69
2023/04/04 11:47:54;;;;;;;;;;;14.10;93.60;;;;;;5064307;28;19913;-69
2023/04/04 11:50:20;;;;;;;;;;;14.40;92.80;;;;;;5071024;28;19920;-69
2023/04/04 11:52:45;;;;;;;;;;;14.60;91.90;;;;;;5071128;28;20291;-69
2023/04/04 11:55:14;;;;;;;;;;;14.70;89.10;;;;;;5072527;28;20057;-69
2023/04/04 11:57:40;;;;;;;;;;;15.10;89.20;;;;;;5065446;28;19999;-69
2023/04/04 12:00:07;;;;;;;;;;;15.00;81.40;;;;;;5073304;28;21033;-68
2023/04/04 12:02:33;;;;;;;;;;;15.20;80.80;;;;;;5071816;28;19912;-69
2023/04/04 12:04:59;;;;;;;;;;;15.50;72.90;;;;;;5070593;28;19913;-69
2023/04/04 12:07:27;;;;;;;;;;;15.40;71.30;;;;;;5066716;28;19923;-69
2023/04/04 12:09:53;;;;;;;;;;;15.80;77.80;;;;;;5070482;28;20023;-68
2023/04/04 12:12:18;;;;;;;;;;;15.80;71.30;;;;;;5071026;28;19913;-68
2023/04/04 12:14:44;;;;;;;;;;;15.90;68.10;;;;;;5068985;28;20318;-69
2023/04/04 12:17:10;;;;;;;;;;;16.00;67.70;;;;;;5063395;28;19924;-69
2023/04/04 12:19:39;;;;;;;;;;;16.20;69.40;;;;;;5071345;28;20011;-68
2023/04/04 12:22:06;;;;;;;;;;;16.30;66.60;;;;;;5070967;28;19951;-70
2023/04/04 12:24:32;;;;;;;;;;;16.40;64.70;;;;;;5072174;28;20015;-69
2023/04/04 12:26:58;;;;;;;;;;;16.30;66.30;;;;;;5067840;28;20023;-69
2023/04/04 12:29:25;;;;;;;;;;;16.20;67.20;;;;;;5063296;28;19912;-69
2023/04/04 12:31:51;;;;;;;;;;;15.90;63.00;;;;;;5070949;28;19928;-68
2023/04/04 12:34:23;;;;;;;;;;;15.80;64.00;;;;;;5065694;28;19962;-68
2023/04/04 12:36:51;;;;;;;;;;;16.20;63.00;;;;;;5070236;28;19916;-69
2023/04/04 12:39:18;;;;;;;;;;;16.50;63.80;;;;;;5071743;28;20244;-68
2023/04/04 12:41:50;;;;;;;;;;;16.70;62.40;;;;;;5068175;28;20322;-68
2023/04/04 12:44:26;;;;;;;;;;;16.60;60.30;;;;;;5074078;28;19929;-69
2023/04/04 12:46:51;;;;;;;;;;;16.50;59.60;;;;;;5076453;28;19916;-68
2023/04/04 12:49:20;;;;;;;;;;;16.50;59.70;;;;;;5074992;28;20011;-69
2023/04/04 12:51:46;;;;;;;;;;;16.90;59.40;;;;;;5079283;28;19923;-68
2023/04/04 12:54:24;;;;;;;;;;;16.60;59.60;;;;;;5071995;28;19920;-68
2023/04/04 12:56:53;;;;;;;;;;;16.50;61.50;;;;;;5066280;28;20023;-68
2023/04/04 12:59:21;;;;;;;;;;;16.70;60.80;;;;;;5078747;28;19916;-68
2023/04/04 13:01:47;;;;;;;;;;;17.10;56.70;;;;;;5074194;28;19919;-68
2023/04/04 13:04:16;;;;;;;;;;;17.20;56.10;;;;;;5078646;28;19912;-69
2023/04/04 13:06:48;;;;;;;;;;;17.40;55.00;;;;;;5075351;28;19924;-68
2023/04/04 13:09:17;;;;;;;;;;;17.50;55.40;;;;;;5080105;28;19912;-69
2023/04/04 13:12:00;;;;;;;;;;;17.70;54.40;;;;;;5073176;28;19912;-68
2023/04/04 13:14:27;;;;;;;;;;;17.60;55.20;;;;;;5065469;28;19916;-69
2023/04/04 13:17:04;;;;;;;;;;;17.70;55.20;;;;;;5065112;28;19916;-70
2023/04/04 13:19:30;;;;;;;;;;;17.90;56.30;;;;;;5071634;28;20047;-68
2023/04/04 13:21:55;;;;;;;;;;;18.30;56.30;;;;;;5068193;28;19999;-69
2023/04/04 13:24:21;;;;;;;;;;;17.80;57.60;;;;;;5075309;28;19920;-68
2023/04/04 13:26:46;;;;;;;;;;;18.20;57.30;;;;;;5062351;28;19919;-69
2023/04/04 13:29:12;;;;;;;;;;;18.30;55.80;;;;;;5074537;28;19924;-68
2023/04/04 13:31:38;;;;;;;;;;;18.10;56.40;;;;;;5076141;28;19912;-68
2023/04/04 13:34:04;;;;;;;;;;;18.40;55.40;;;;;;5069994;28;19919;-67
2023/04/04 13:36:30;;;;;;;;;;;18.80;55.30;;;;;;5067320;28;21393;-68
2023/04/04 13:38:56;;;;;;;;;;;19.40;54.10;;;;;;5066442;28;19920;-69
2023/04/04 13:41:21;;;;;;;;;;;18.90;53.70;;;;;;5070912;28;19912;-69
2023/04/04 13:43:47;;;;;;;;;;;18.80;53.70;;;;;;5054686;28;19921;-69
2023/04/04 13:46:13;;;;;;;;;;;18.60;53.60;;;;;;5050513;28;19959;-68
2023/04/04 13:48:39;;;;;;;;;;;18.80;53.50;;;;;;5052116;28;19919;-68
2023/04/04 13:51:04;;;;;;;;;;;18.80;53.90;;;;;;5050350;28;19921;-69
2023/04/04 13:53:30;;;;;;;;;;;18.80;53.80;;;;;;5049323;28;19913;-68
2023/04/04 13:55:56;;;;;;;;;;;18.90;52.80;;;;;;5050588;28;20324;-69
2023/04/04 13:58:21;;;;;;;;;;;18.60;53.00;;;;;;5048241;28;20014;-68
2023/04/04 14:00:47;;;;;;;;;;;18.70;54.60;;;;;;5050670;28;20328;-69
2023/04/04 14:03:13;;;;;;;;;;;18.90;52.90;;;;;;5060943;28;19916;-67
2023/04/04 14:05:39;;;;;;;;;;;19.20;52.70;;;;;;5062272;28;20387;-68
2023/04/04 14:08:04;;;;;;;;;;;19.20;51.40;;;;;;5051277;28;19921;-69
2023/04/04 14:10:30;;;;;;;;;;;19.30;51.60;;;;;;5051033;28;19928;-69
2023/04/04 14:12:55;;;;;;;;;;;19.20;50.90;;;;;;5052158;28;20003;-69
2023/04/04 14:15:22;;;;;;;;;;;19.40;51.40;;;;;;5049775;28;19924;-68
2023/04/04 14:17:48;;;;;;;;;;;19.60;50.60;;;;;;5050392;28;19986;-68
2023/04/04 14:20:14;;;;;;;;;;;19.90;50.30;;;;;;5055543;28;20007;-68
2023/04/04 14:22:39;;;;;;;;;;;19.60;50.50;;;;;;5048264;28;19963;-67